createdAt,value
2018-11-03T00:00:25.934Z,0.00
2018-11-03T00:01:25.957Z,0.00
2018-11-03T00:02:25.980Z,0.00
2018-11-03T00:03:26.006Z,0.00
2018-11-03T00:04:26.029Z,0.00
2018-11-03T00:05:26.051Z,0.00
2018-11-03T00:06:26.074Z,0.00
2018-11-03T00:07:26.102Z,0.00
2018-11-03T00:08:26.121Z,0.00
2018-11-03T00:09:26.147Z,0.00
2018-11-03T00:10:26.168Z,0.00
2018-11-03T00:11:26.191Z,0.00
2018-11-03T00:12:26.215Z,0.00
2018-11-03T00:13:26.237Z,0.00
2018-11-03T00:14:26.260Z,0.00
2018-11-03T00:15:26.284Z,0.00
2018-11-03T00:16:26.308Z,0.00
2018-11-03T00:17:26.330Z,0.00
2018-11-03T00:18:26.357Z,0.00
2018-11-03T00:19:26.377Z,0.00
2018-11-03T00:20:26.401Z,0.00
2018-11-03T00:21:26.423Z,0.00
2018-11-03T00:22:26.446Z,0.00
2018-11-03T00:23:26.469Z,0.00
2018-11-03T00:24:26.495Z,0.00
2018-11-03T00:25:26.516Z,0.00
2018-11-03T00:26:26.540Z,0.00
2018-11-03T00:27:26.565Z,0.00
2018-11-03T00:28:26.599Z,0.00
2018-11-03T00:29:26.609Z,0.00
2018-11-03T00:30:26.631Z,0.00
2018-11-03T00:31:26.654Z,0.00
2018-11-03T00:32:26.678Z,0.00
2018-11-03T00:33:26.700Z,0.00
2018-11-03T00:34:26.723Z,0.00
2018-11-03T00:35:26.747Z,0.00
2018-11-03T00:36:26.771Z,0.00
2018-11-03T00:37:26.793Z,0.00
2018-11-03T00:38:26.819Z,0.00
2018-11-03T00:39:26.842Z,0.00
2018-11-03T00:40:26.883Z,0.00
2018-11-03T00:41:26.887Z,0.00
2018-11-03T00:42:26.909Z,0.00
2018-11-03T00:43:26.933Z,0.00
2018-11-03T00:44:26.956Z,0.00
2018-11-03T00:45:26.979Z,0.00
2018-11-03T00:46:27.002Z,0.00
2018-11-03T00:47:27.024Z,0.00
2018-11-03T00:48:27.047Z,0.00
2018-11-03T00:49:27.071Z,0.00
2018-11-03T00:50:27.093Z,0.00
2018-11-03T00:51:27.117Z,0.00
2018-11-03T00:52:27.141Z,0.00
2018-11-03T00:53:27.162Z,0.00
2018-11-03T00:54:27.186Z,0.00
2018-11-03T00:55:27.210Z,0.00
2018-11-03T00:56:27.233Z,0.00
2018-11-03T00:57:27.255Z,0.00
2018-11-03T00:58:27.278Z,0.00
2018-11-03T00:59:27.302Z,0.00
2018-11-03T01:00:27.325Z,0.00
2018-11-03T01:01:27.348Z,0.00
2018-11-03T01:02:27.371Z,0.00
2018-11-03T01:03:27.394Z,0.00
2018-11-03T01:04:27.418Z,0.00
2018-11-03T01:05:27.440Z,0.00
2018-11-03T01:06:27.462Z,0.00
2018-11-03T01:07:27.487Z,0.00
2018-11-03T01:08:27.514Z,0.00
2018-11-03T01:09:27.532Z,0.00
2018-11-03T01:10:27.555Z,0.00
2018-11-03T01:11:27.578Z,0.00
2018-11-03T01:12:27.606Z,0.00
2018-11-03T01:13:27.624Z,0.00
2018-11-03T01:14:27.648Z,0.00
2018-11-03T01:15:27.673Z,0.00
2018-11-03T01:16:27.694Z,0.00
2018-11-03T01:17:27.751Z,0.00
2018-11-03T01:18:27.741Z,0.00
2018-11-03T01:19:27.763Z,0.00
2018-11-03T01:20:27.786Z,0.00
2018-11-03T01:21:27.809Z,0.00
2018-11-03T01:22:27.832Z,0.00
2018-11-03T01:23:27.956Z,0.00
2018-11-03T01:24:27.879Z,0.00
2018-11-03T01:25:27.901Z,0.00
2018-11-03T01:26:27.925Z,0.00
2018-11-03T01:27:27.948Z,0.00
2018-11-03T01:28:27.971Z,0.00
2018-11-03T01:29:27.993Z,0.00
2018-11-03T01:30:28.016Z,0.00
2018-11-03T01:31:28.040Z,0.00
2018-11-03T01:32:28.105Z,0.00
2018-11-03T01:33:28.085Z,0.00
2018-11-03T01:34:28.119Z,0.00
2018-11-03T01:35:28.135Z,0.00
2018-11-03T01:36:28.156Z,0.00
2018-11-03T01:37:28.177Z,0.00
2018-11-03T01:38:28.201Z,0.00
2018-11-03T01:39:28.227Z,0.00
2018-11-03T01:40:28.248Z,0.00
2018-11-03T01:41:28.272Z,0.00
2018-11-03T01:42:28.293Z,0.00
2018-11-03T01:43:28.318Z,0.00
2018-11-03T01:44:28.342Z,0.00
2018-11-03T01:45:28.361Z,0.00
2018-11-03T01:46:28.384Z,0.00
2018-11-03T01:47:28.408Z,0.00
2018-11-03T01:48:28.435Z,0.00
2018-11-03T01:49:28.453Z,0.00
2018-11-03T01:50:28.476Z,0.00
2018-11-03T01:51:28.500Z,0.00
2018-11-03T01:52:28.525Z,0.00
2018-11-03T01:53:28.545Z,0.00
2018-11-03T01:54:28.569Z,0.00
2018-11-03T01:55:28.592Z,0.00
2018-11-03T01:56:28.615Z,0.00
2018-11-03T01:57:28.638Z,0.00
2018-11-03T01:58:28.667Z,0.00
2018-11-03T01:59:28.683Z,0.00
2018-11-03T02:00:28.708Z,0.00
2018-11-03T02:01:28.730Z,0.00
2018-11-03T02:02:28.752Z,0.00
2018-11-03T02:03:28.777Z,0.00
2018-11-03T02:04:28.799Z,0.00
2018-11-03T02:05:28.821Z,0.00
2018-11-03T02:06:28.844Z,0.00
2018-11-03T02:07:28.868Z,0.00
2018-11-03T02:08:28.894Z,0.00
2018-11-03T02:09:28.913Z,0.00
2018-11-03T02:10:28.937Z,0.00
2018-11-03T02:11:28.961Z,0.00
2018-11-03T02:12:28.983Z,0.00
2018-11-03T02:13:29.006Z,0.00
2018-11-03T02:14:29.037Z,0.00
2018-11-03T02:15:29.051Z,0.00
2018-11-03T02:16:29.075Z,0.00
2018-11-03T02:17:29.097Z,0.00
2018-11-03T02:18:29.120Z,0.00
2018-11-03T02:19:29.142Z,0.00
2018-11-03T02:20:29.169Z,0.00
2018-11-03T02:21:29.189Z,0.00
2018-11-03T02:22:29.232Z,0.00
2018-11-03T02:23:29.235Z,0.00
2018-11-03T02:24:29.258Z,0.00
2018-11-03T02:25:29.280Z,0.00
2018-11-03T02:26:29.303Z,0.00
2018-11-03T02:27:29.329Z,0.00
2018-11-03T02:28:29.351Z,0.00
2018-11-03T02:29:29.371Z,0.00
2018-11-03T02:30:29.401Z,0.00
2018-11-03T02:31:29.417Z,0.00
2018-11-03T02:32:29.440Z,0.00
2018-11-03T02:33:29.527Z,0.00
2018-11-03T02:34:29.485Z,0.00
2018-11-03T02:35:29.512Z,0.00
2018-11-03T02:36:29.532Z,0.00
2018-11-03T02:37:29.555Z,0.00
2018-11-03T02:38:29.577Z,0.00
2018-11-03T02:39:29.607Z,0.00
2018-11-03T02:40:29.632Z,0.00
2018-11-03T02:41:29.645Z,0.00
2018-11-03T02:42:29.668Z,0.00
2018-11-03T02:43:29.737Z,0.00
2018-11-03T02:44:29.714Z,0.00
2018-11-03T02:45:29.736Z,0.00
2018-11-03T02:46:29.760Z,0.00
2018-11-03T02:47:29.783Z,0.00
2018-11-03T02:48:29.806Z,0.00
2018-11-03T02:49:29.829Z,0.00
2018-11-03T02:50:29.854Z,0.00
2018-11-03T02:51:29.874Z,0.00
2018-11-03T02:52:29.898Z,0.00
2018-11-03T02:53:29.924Z,0.00
2018-11-03T02:54:29.942Z,0.00
2018-11-03T02:55:29.966Z,0.00
2018-11-03T02:56:29.988Z,0.00
2018-11-03T02:57:30.060Z,0.00
2018-11-03T02:58:30.040Z,0.00
2018-11-03T02:59:30.056Z,0.00
2018-11-03T03:00:30.080Z,0.00
2018-11-03T03:01:30.103Z,0.00
2018-11-03T03:02:30.125Z,0.00
2018-11-03T03:03:30.151Z,0.00
2018-11-03T03:04:30.171Z,0.00
2018-11-03T03:05:30.195Z,0.00
2018-11-03T03:06:30.216Z,0.00
2018-11-03T03:07:30.242Z,0.00
2018-11-03T03:08:30.289Z,0.00
2018-11-03T03:09:30.286Z,0.00
2018-11-03T03:10:30.307Z,0.00
2018-11-03T03:11:30.331Z,0.00
2018-11-03T03:12:30.354Z,0.00
2018-11-03T03:13:30.376Z,0.00
2018-11-03T03:14:30.399Z,0.00
2018-11-03T03:15:30.422Z,0.00
2018-11-03T03:16:30.445Z,0.00
2018-11-03T03:17:30.470Z,0.00
2018-11-03T03:18:30.492Z,0.00
2018-11-03T03:19:30.513Z,0.00
2018-11-03T03:20:30.551Z,0.00
2018-11-03T03:21:30.558Z,0.00
2018-11-03T03:22:30.581Z,0.00
2018-11-03T03:23:30.605Z,0.00
2018-11-03T03:24:30.627Z,0.00
2018-11-03T03:25:30.649Z,0.00
2018-11-03T03:26:30.677Z,0.00
2018-11-03T03:27:30.700Z,0.00
2018-11-03T03:28:30.719Z,0.00
2018-11-03T03:29:30.835Z,0.00
2018-11-03T03:30:30.766Z,0.00
2018-11-03T03:31:30.787Z,0.00
2018-11-03T03:32:30.810Z,0.00
2018-11-03T03:33:30.836Z,0.00
2018-11-03T03:34:30.855Z,0.00
2018-11-03T03:35:30.887Z,0.00
2018-11-03T03:36:30.902Z,0.00
2018-11-03T03:37:30.925Z,0.00
2018-11-03T03:38:30.946Z,0.00
2018-11-03T03:39:30.969Z,0.00
2018-11-03T03:40:30.993Z,0.00
2018-11-03T03:41:31.015Z,0.00
2018-11-03T03:42:31.038Z,0.00
2018-11-03T03:43:31.061Z,0.00
2018-11-03T03:44:31.085Z,0.00
2018-11-03T03:45:31.117Z,0.00
2018-11-03T03:46:31.130Z,0.00
2018-11-03T03:47:31.152Z,0.00
2018-11-03T03:48:31.175Z,0.00
2018-11-03T03:49:31.198Z,0.00
2018-11-03T03:50:31.227Z,0.00
2018-11-03T03:51:31.246Z,0.00
2018-11-03T03:52:31.267Z,0.00
2018-11-03T03:53:31.293Z,0.00
2018-11-03T03:54:31.314Z,0.00
2018-11-03T03:55:31.337Z,0.00
2018-11-03T03:56:31.359Z,0.00
2018-11-03T03:57:31.380Z,0.00
2018-11-03T03:58:31.403Z,0.00
2018-11-03T03:59:31.431Z,0.00
2018-11-03T04:00:31.452Z,0.00
2018-11-03T04:01:31.480Z,0.00
2018-11-03T04:02:31.496Z,0.00
2018-11-03T04:03:31.523Z,0.00
2018-11-03T04:04:31.541Z,0.00
2018-11-03T04:05:31.562Z,0.00
2018-11-03T04:06:31.585Z,0.00
2018-11-03T04:07:31.610Z,0.00
2018-11-03T04:08:31.632Z,0.00
2018-11-03T04:09:31.657Z,0.00
2018-11-03T04:10:31.678Z,0.00
2018-11-03T04:11:31.702Z,0.00
2018-11-03T04:12:31.727Z,0.00
2018-11-03T04:13:31.748Z,0.00
2018-11-03T04:14:31.768Z,0.00
2018-11-03T04:15:31.795Z,0.00
2018-11-03T04:16:31.815Z,0.00
2018-11-03T04:17:31.836Z,0.00
2018-11-03T04:18:31.905Z,0.00
2018-11-03T04:19:31.882Z,0.00
2018-11-03T04:20:31.905Z,0.00
2018-11-03T04:21:31.932Z,0.00
2018-11-03T04:22:31.952Z,0.00
2018-11-03T04:23:31.976Z,0.00
2018-11-03T04:24:31.997Z,0.00
2018-11-03T04:25:32.018Z,0.00
2018-11-03T04:26:32.042Z,0.00
2018-11-03T04:27:32.065Z,0.00
2018-11-03T04:28:32.089Z,0.00
2018-11-03T04:29:32.110Z,0.00
2018-11-03T04:30:32.133Z,0.00
2018-11-03T04:31:32.157Z,0.00
2018-11-03T04:32:32.179Z,0.00
2018-11-03T04:33:32.201Z,0.00
2018-11-03T04:34:32.224Z,0.00
2018-11-03T04:35:32.250Z,0.00
2018-11-03T04:36:32.275Z,0.00
2018-11-03T04:37:32.293Z,0.00
2018-11-03T04:38:32.317Z,0.00
2018-11-03T04:39:32.337Z,0.00
2018-11-03T04:40:32.364Z,0.00
2018-11-03T04:41:32.384Z,0.00
2018-11-03T04:42:32.409Z,0.00
2018-11-03T04:43:32.430Z,0.00
2018-11-03T04:44:32.474Z,0.00
2018-11-03T04:45:32.567Z,0.00
2018-11-03T04:46:32.497Z,0.00
2018-11-03T04:47:32.520Z,0.00
2018-11-03T04:48:32.547Z,0.00
2018-11-03T04:49:32.565Z,0.00
2018-11-03T04:50:32.589Z,0.00
2018-11-03T04:51:32.612Z,0.00
2018-11-03T04:52:32.635Z,0.00
2018-11-03T04:53:32.664Z,0.00
2018-11-03T04:54:32.679Z,0.00
2018-11-03T04:55:32.705Z,0.00
2018-11-03T04:56:32.725Z,0.00
2018-11-03T04:57:32.748Z,0.00
2018-11-03T04:58:32.772Z,0.00
2018-11-03T04:59:32.795Z,0.00
2018-11-03T05:00:32.817Z,0.00
2018-11-03T05:01:32.839Z,0.00
2018-11-03T05:02:32.866Z,0.00
2018-11-03T05:03:32.885Z,0.00
2018-11-03T05:04:32.909Z,0.00
2018-11-03T05:05:32.931Z,0.00
2018-11-03T05:06:32.953Z,0.00
2018-11-03T05:07:32.977Z,0.00
2018-11-03T05:08:32.999Z,0.00
2018-11-03T05:09:33.025Z,0.00
2018-11-03T05:10:33.068Z,0.00
2018-11-03T05:11:33.079Z,0.00
2018-11-03T05:12:33.098Z,0.00
2018-11-03T05:13:33.112Z,0.00
2018-11-03T05:14:33.135Z,0.00
2018-11-03T05:15:33.159Z,0.00
2018-11-03T05:16:33.181Z,0.00
2018-11-03T05:17:33.204Z,0.00
2018-11-03T05:18:33.226Z,0.00
2018-11-03T05:19:33.249Z,0.00
2018-11-03T05:20:33.273Z,0.00
2018-11-03T05:21:33.294Z,0.00
2018-11-03T05:22:33.319Z,0.00
2018-11-03T05:23:33.340Z,0.00
2018-11-03T05:24:33.364Z,0.00
2018-11-03T05:25:33.385Z,0.00
2018-11-03T05:26:33.409Z,0.00
2018-11-03T05:27:33.445Z,0.00
2018-11-03T05:28:33.455Z,0.00
2018-11-03T05:29:33.476Z,0.00
2018-11-03T05:30:33.500Z,0.00
2018-11-03T05:31:33.522Z,0.00
2018-11-03T05:32:33.546Z,0.00
2018-11-03T05:33:33.568Z,0.00
2018-11-03T05:34:33.592Z,0.00
2018-11-03T05:35:33.669Z,0.00
2018-11-03T05:36:33.639Z,0.00
2018-11-03T05:37:33.659Z,0.00
2018-11-03T05:38:33.682Z,0.00
2018-11-03T05:39:33.705Z,0.00
2018-11-03T05:40:33.728Z,0.00
2018-11-03T05:41:33.751Z,0.00
2018-11-03T05:42:33.779Z,0.00
2018-11-03T05:43:33.796Z,0.00
2018-11-03T05:44:33.818Z,0.00
2018-11-03T05:45:33.841Z,0.00
2018-11-03T05:46:33.963Z,0.00
2018-11-03T05:47:33.887Z,0.00
2018-11-03T05:48:33.911Z,0.00
2018-11-03T05:49:33.932Z,0.00
2018-11-03T05:50:33.955Z,0.00
2018-11-03T05:51:33.983Z,0.00
2018-11-03T05:52:34.008Z,4.00
2018-11-03T05:53:34.023Z,4.00
2018-11-03T05:54:34.050Z,4.00
2018-11-03T05:55:34.070Z,4.00
2018-11-03T05:56:34.092Z,4.00
2018-11-03T05:57:34.114Z,8.00
2018-11-03T05:58:34.137Z,8.00
2018-11-03T05:59:34.161Z,4.00
2018-11-03T06:00:34.183Z,8.00
2018-11-03T06:01:34.205Z,8.00
2018-11-03T06:02:34.229Z,12.00
2018-11-03T06:03:34.252Z,16.00
2018-11-03T06:04:34.275Z,20.00
2018-11-03T06:05:34.297Z,24.00
2018-11-03T06:06:34.320Z,24.00
2018-11-03T06:07:34.343Z,32.00
2018-11-03T06:08:34.385Z,36.00
2018-11-03T06:09:34.388Z,44.00
2018-11-03T06:10:34.412Z,48.00
2018-11-03T06:11:34.435Z,60.00
2018-11-03T06:12:34.459Z,72.00
2018-11-03T06:13:34.478Z,84.00
2018-11-03T06:14:34.501Z,96.00
2018-11-03T06:15:34.610Z,108.00
2018-11-03T06:16:34.549Z,124.00
2018-11-03T06:17:34.570Z,140.00
2018-11-03T06:18:34.597Z,164.00
2018-11-03T06:19:34.651Z,184.00
2018-11-03T06:20:34.638Z,200.00
2018-11-03T06:21:34.660Z,216.00
2018-11-03T06:22:34.788Z,228.00
2018-11-03T06:23:34.786Z,248.00
2018-11-03T06:24:34.729Z,268.00
2018-11-03T06:25:34.753Z,300.00
2018-11-03T06:26:34.777Z,340.00
2018-11-03T06:27:34.822Z,396.00
2018-11-03T06:28:34.820Z,460.00
2018-11-03T06:29:34.842Z,520.00
2018-11-03T06:30:34.866Z,572.00
2018-11-03T06:31:34.889Z,624.00
2018-11-03T06:32:34.911Z,672.00
2018-11-03T06:33:34.935Z,728.00
2018-11-03T06:34:34.964Z,792.00
2018-11-03T06:35:34.980Z,868.00
2018-11-03T06:36:35.000Z,940.00
2018-11-03T06:37:35.022Z,1016.00
2018-11-03T06:38:35.046Z,1084.00
2018-11-03T06:39:35.068Z,1156.00
2018-11-03T06:40:35.091Z,1232.00
2018-11-03T06:41:35.115Z,1300.00
2018-11-03T06:42:35.135Z,1360.00
2018-11-03T06:43:35.158Z,1416.00
2018-11-03T06:44:35.181Z,1492.00
2018-11-03T06:45:35.204Z,1588.00
2018-11-03T06:46:35.258Z,1688.00
2018-11-03T06:47:35.340Z,1796.00
2018-11-03T06:48:35.273Z,1916.00
2018-11-03T06:49:35.293Z,2036.00
2018-11-03T06:50:35.316Z,2176.00
2018-11-03T06:51:35.339Z,2308.00
2018-11-03T06:52:35.365Z,2432.00
2018-11-03T06:53:35.386Z,2548.00
2018-11-03T06:54:35.406Z,2692.00
2018-11-03T06:55:35.430Z,2864.00
2018-11-03T06:56:35.454Z,3024.00
2018-11-03T06:57:35.475Z,3152.00
2018-11-03T06:58:35.499Z,3260.00
2018-11-03T06:59:35.521Z,3372.00
2018-11-03T07:00:35.568Z,3480.00
2018-11-03T07:01:35.565Z,3592.00
2018-11-03T07:02:35.589Z,3704.00
2018-11-03T07:03:35.612Z,3832.00
2018-11-03T07:04:35.636Z,3956.00
2018-11-03T07:05:35.657Z,4064.00
2018-11-03T07:06:35.713Z,4164.00
2018-11-03T07:07:35.711Z,4256.00
2018-11-03T07:08:35.726Z,4352.00
2018-11-03T07:09:35.800Z,4484.00
2018-11-03T07:10:35.771Z,4604.00
2018-11-03T07:11:35.956Z,4716.00
2018-11-03T07:12:36.083Z,4824.00
2018-11-03T07:13:35.840Z,4924.00
2018-11-03T07:14:35.863Z,5016.00
2018-11-03T07:15:35.889Z,5132.00
2018-11-03T07:16:35.909Z,5260.00
2018-11-03T07:17:36.006Z,5396.00
2018-11-03T07:18:35.955Z,5516.00
2018-11-03T07:19:36.105Z,5644.00
2018-11-03T07:20:36.001Z,5728.00
2018-11-03T07:21:36.124Z,5816.00
2018-11-03T07:22:36.052Z,5912.00
2018-11-03T07:23:36.074Z,5980.00
2018-11-03T07:24:36.093Z,6056.00
2018-11-03T07:25:36.126Z,6124.00
2018-11-03T07:26:36.138Z,6204.00
2018-11-03T07:27:36.162Z,6320.00
2018-11-03T07:28:36.189Z,6428.00
2018-11-03T07:29:36.307Z,6492.00
2018-11-03T07:30:36.236Z,6552.00
2018-11-03T07:31:36.256Z,6484.00
2018-11-03T07:32:36.278Z,6604.00
2018-11-03T07:33:36.301Z,6572.00
2018-11-03T07:34:36.326Z,6348.00
2018-11-03T07:35:36.370Z,6452.00
2018-11-03T07:36:36.372Z,6472.00
2018-11-03T07:37:36.393Z,6644.00
2018-11-03T07:38:36.417Z,6556.00
2018-11-03T07:39:36.441Z,6480.00
2018-11-03T07:40:36.475Z,6440.00
2018-11-03T07:41:36.611Z,6300.00
2018-11-03T07:42:36.587Z,6504.00
2018-11-03T07:43:36.534Z,6680.00
2018-11-03T07:44:36.559Z,6732.00
2018-11-03T07:45:36.581Z,6100.00
2018-11-03T07:46:36.604Z,6008.00
2018-11-03T07:47:36.628Z,6328.00
2018-11-03T07:48:36.744Z,6296.00
2018-11-03T07:49:36.688Z,6468.00
2018-11-03T07:50:36.698Z,6744.00
2018-11-03T07:51:36.721Z,6608.00
2018-11-03T07:52:36.746Z,6468.00
2018-11-03T07:53:36.772Z,6640.00
2018-11-03T07:54:36.821Z,6560.00
2018-11-03T07:55:36.819Z,6444.00
2018-11-03T07:56:36.841Z,6124.00
2018-11-03T07:57:36.865Z,6204.00
2018-11-03T07:58:36.888Z,6224.00
2018-11-03T07:59:36.910Z,6236.00
2018-11-03T08:00:37.010Z,6244.00
2018-11-03T08:01:36.956Z,6284.00
2018-11-03T08:02:36.984Z,6476.00
2018-11-03T08:03:37.004Z,6712.00
2018-11-03T08:04:37.029Z,6868.00
2018-11-03T08:05:37.050Z,6660.00
2018-11-03T08:06:37.075Z,6736.00
2018-11-03T08:07:37.106Z,6608.00
2018-11-03T08:08:37.137Z,6584.00
2018-11-03T08:09:37.146Z,6616.00
2018-11-03T08:10:37.170Z,6616.00
2018-11-03T08:11:37.195Z,6580.00
2018-11-03T08:12:37.217Z,6656.00
2018-11-03T08:13:37.241Z,6664.00
2018-11-03T08:14:37.268Z,6600.00
2018-11-03T08:15:37.350Z,6560.00
2018-11-03T08:16:37.314Z,6532.00
2018-11-03T08:17:37.336Z,6488.00
2018-11-03T08:18:37.361Z,6520.00
2018-11-03T08:19:37.386Z,6680.00
2018-11-03T08:20:37.408Z,6740.00
2018-11-03T08:21:37.431Z,6884.00
2018-11-03T08:22:37.456Z,6956.00
2018-11-03T08:23:37.487Z,6920.00
2018-11-03T08:24:37.503Z,6908.00
2018-11-03T08:25:37.526Z,6880.00
2018-11-03T08:26:37.551Z,6916.00
2018-11-03T08:27:37.581Z,6944.00
2018-11-03T08:28:37.599Z,6932.00
2018-11-03T08:29:37.625Z,6960.00
2018-11-03T08:30:37.647Z,7052.00
2018-11-03T08:31:37.771Z,7360.00
2018-11-03T08:32:37.697Z,7724.00
2018-11-03T08:33:37.718Z,8028.00
2018-11-03T08:34:37.743Z,8264.00
2018-11-03T08:35:37.767Z,8744.00
2018-11-03T08:36:37.792Z,9468.00
2018-11-03T08:37:37.816Z,10568.00
2018-11-03T08:38:37.840Z,14544.00
2018-11-03T08:39:37.953Z,23712.00
2018-11-03T08:40:37.888Z,27712.00
2018-11-03T08:41:37.911Z,31072.00
2018-11-03T08:42:37.936Z,41312.00
2018-11-03T08:43:37.965Z,37664.00
2018-11-03T08:44:37.987Z,39712.00
2018-11-03T08:45:38.010Z,45536.00
2018-11-03T08:46:38.035Z,53760.00
2018-11-03T08:47:38.059Z,53280.00
2018-11-03T08:48:38.178Z,46560.00
2018-11-03T08:49:38.114Z,43040.00
2018-11-03T08:50:38.133Z,36384.00
2018-11-03T08:51:38.160Z,22464.00
2018-11-03T08:52:38.219Z,25120.00
2018-11-03T08:53:38.255Z,20608.00
2018-11-03T08:54:38.236Z,41760.00
2018-11-03T08:55:38.261Z,53056.00
2018-11-03T08:56:38.290Z,48800.00
2018-11-03T08:57:38.315Z,49024.00
2018-11-03T08:58:38.343Z,56448.00
2018-11-03T08:59:38.456Z,59200.00
2018-11-03T09:00:38.393Z,46112.00
2018-11-03T09:01:38.419Z,28544.00
2018-11-03T09:02:38.449Z,32672.00
2018-11-03T09:03:38.475Z,51328.00
2018-11-03T09:04:38.505Z,54080.00
2018-11-03T09:05:38.528Z,46784.00
2018-11-03T09:06:38.556Z,45440.00
2018-11-03T09:07:38.583Z,55616.00
2018-11-03T09:08:38.611Z,46208.00
2018-11-03T09:09:38.639Z,59744.00
2018-11-03T09:10:38.665Z,69792.00
2018-11-03T09:11:38.694Z,68256.00
2018-11-03T09:12:38.721Z,69728.00
2018-11-03T09:13:38.750Z,65504.00
2018-11-03T09:14:38.866Z,51168.00
2018-11-03T09:15:38.806Z,59808.00
2018-11-03T09:16:38.836Z,65312.00
2018-11-03T09:17:38.863Z,72448.00
2018-11-03T09:18:38.892Z,77088.00
2018-11-03T09:19:38.921Z,86368.00
2018-11-03T09:20:38.952Z,91040.00
2018-11-03T09:21:38.993Z,95712.00
2018-11-03T09:22:39.130Z,91264.00
2018-11-03T09:23:39.038Z,76768.00
2018-11-03T09:24:39.068Z,67776.00
2018-11-03T09:26:51.719Z,64192.00
2018-11-03T09:27:51.750Z,46656.00
2018-11-03T09:28:51.778Z,66048.00
2018-11-03T09:29:51.809Z,64928.00
2018-11-03T09:30:51.846Z,52640.00
2018-11-03T09:31:51.967Z,47424.00
2018-11-03T09:32:51.901Z,41920.00
2018-11-03T09:33:51.934Z,43648.00
2018-11-03T09:34:52.005Z,54816.00
2018-11-03T09:35:51.995Z,69216.00
2018-11-03T09:36:52.024Z,66752.00
2018-11-03T09:37:52.054Z,56320.00
2018-11-03T09:38:52.182Z,52768.00
2018-11-03T09:39:52.115Z,53280.00
2018-11-03T09:40:52.145Z,56864.00
2018-11-03T09:41:52.178Z,53696.00
2018-11-03T09:42:52.211Z,47808.00
2018-11-03T09:43:52.236Z,47072.00
2018-11-03T09:44:52.300Z,41056.00
2018-11-03T09:45:52.297Z,49824.00
2018-11-03T09:46:52.326Z,46336.00
2018-11-03T09:47:52.362Z,55488.00
2018-11-03T09:48:52.399Z,55616.00
2018-11-03T09:49:52.417Z,54528.00
2018-11-03T09:50:52.505Z,30336.00
2018-11-03T09:51:52.478Z,50912.00
2018-11-03T09:52:52.509Z,54720.00
2018-11-03T09:53:52.541Z,54240.00
2018-11-03T09:54:52.571Z,43264.00
2018-11-03T09:55:52.599Z,36544.00
2018-11-03T09:56:52.626Z,37664.00
2018-11-03T09:57:52.655Z,44512.00
2018-11-03T09:58:52.686Z,49760.00
2018-11-03T09:59:52.715Z,52896.00
2018-11-03T10:00:52.747Z,62432.00
2018-11-03T10:01:52.777Z,60544.00
2018-11-03T10:02:52.804Z,66816.00
2018-11-03T10:03:52.833Z,35296.00
2018-11-03T10:04:52.861Z,66016.00
2018-11-03T10:05:52.893Z,70560.00
2018-11-03T10:06:52.920Z,71456.00
2018-11-03T10:07:52.952Z,72192.00
2018-11-03T10:08:52.980Z,72160.00
2018-11-03T10:09:53.009Z,74144.00
2018-11-03T10:10:53.039Z,68160.00
2018-11-03T10:11:53.069Z,59712.00
2018-11-03T10:12:53.097Z,49504.00
2018-11-03T10:13:53.128Z,41408.00
2018-11-03T10:14:53.161Z,38848.00
2018-11-03T10:15:53.302Z,35104.00
2018-11-03T10:16:53.215Z,34688.00
2018-11-03T10:17:53.246Z,38912.00
2018-11-03T10:18:53.276Z,43040.00
2018-11-03T10:19:53.305Z,43584.00
2018-11-03T10:20:53.338Z,49472.00
2018-11-03T10:21:53.363Z,54592.00
2018-11-03T10:22:53.465Z,46752.00
2018-11-03T10:23:53.446Z,54560.00
2018-11-03T10:24:53.451Z,63648.00
2018-11-03T10:25:53.481Z,62816.00
2018-11-03T10:26:53.510Z,63648.00
2018-11-03T10:27:53.540Z,66496.00
2018-11-03T10:28:53.581Z,71360.00
2018-11-03T10:29:53.598Z,75968.00
2018-11-03T10:30:53.629Z,78880.00
2018-11-03T10:31:53.659Z,71680.00
2018-11-03T10:32:53.687Z,75104.00
2018-11-03T10:33:53.734Z,86208.00
2018-11-03T10:34:53.747Z,86048.00
2018-11-03T10:35:53.775Z,84288.00
2018-11-03T10:36:53.807Z,82272.00
2018-11-03T10:37:53.835Z,70976.00
2018-11-03T10:38:53.865Z,54880.00
2018-11-03T10:39:53.901Z,81024.00
2018-11-03T10:40:53.948Z,81024.00
2018-11-03T10:41:53.956Z,72800.00
2018-11-03T10:42:53.987Z,62720.00
2018-11-03T10:43:54.018Z,68768.00
2018-11-03T10:44:54.049Z,64032.00
2018-11-03T10:45:54.079Z,64000.00
2018-11-03T10:46:54.110Z,63520.00
2018-11-03T10:47:54.142Z,68288.00
2018-11-03T10:49:54.205Z,67712.00
2018-11-03T10:50:54.231Z,67520.00
2018-11-03T10:51:54.268Z,68608.00
2018-11-03T10:52:54.295Z,69088.00
2018-11-03T10:53:54.325Z,56640.00
2018-11-03T10:54:54.358Z,68064.00
2018-11-03T10:55:54.389Z,72608.00
2018-11-03T10:56:54.433Z,67968.00
2018-11-03T10:57:54.451Z,64704.00
2018-11-03T10:58:54.482Z,68256.00
2018-11-03T10:59:54.521Z,65120.00
2018-11-03T11:00:54.545Z,65440.00
2018-11-03T11:01:54.577Z,57216.00
2018-11-03T11:02:54.611Z,56288.00
2018-11-03T11:03:54.641Z,62720.00
2018-11-03T11:04:54.673Z,72544.00
2018-11-03T11:05:54.705Z,81280.00
2018-11-03T11:06:54.736Z,74784.00
2018-11-03T11:07:54.768Z,81824.00
2018-11-03T11:08:54.798Z,74560.00
2018-11-03T11:09:54.831Z,61152.00
2018-11-03T11:10:54.863Z,68128.00
2018-11-03T11:11:54.898Z,67040.00
2018-11-03T11:12:54.928Z,68768.00
2018-11-03T11:13:55.030Z,68576.00
2018-11-03T11:14:54.992Z,71168.00
2018-11-03T11:15:55.094Z,69024.00
2018-11-03T11:16:55.125Z,67200.00
2018-11-03T11:17:55.087Z,60000.00
2018-11-03T11:18:55.119Z,44832.00
2018-11-03T11:19:55.152Z,49920.00
2018-11-03T11:20:55.183Z,70048.00
2018-11-03T11:21:55.216Z,66272.00
2018-11-03T11:22:55.250Z,65888.00
2018-11-03T11:23:55.293Z,66784.00
2018-11-03T11:24:55.442Z,54432.00
2018-11-03T11:25:55.344Z,52928.00
2018-11-03T11:26:55.377Z,68800.00
2018-11-03T11:27:55.411Z,69920.00
2018-11-03T11:28:55.444Z,69920.00
2018-11-03T11:29:55.473Z,63776.00
2018-11-03T11:30:55.504Z,64640.00
2018-11-03T11:31:55.538Z,63520.00
2018-11-03T11:32:55.571Z,60704.00
2018-11-03T11:33:55.604Z,55616.00
2018-11-03T11:34:55.634Z,49280.00
2018-11-03T11:35:55.667Z,56928.00
2018-11-03T11:36:55.699Z,70752.00
2018-11-03T11:37:55.735Z,68960.00
2018-11-03T11:38:55.764Z,65472.00
2018-11-03T11:39:55.800Z,54688.00
2018-11-03T11:40:55.829Z,56896.00
2018-11-03T11:41:55.862Z,56736.00
2018-11-03T11:42:55.922Z,63296.00
2018-11-03T11:43:55.929Z,66752.00
2018-11-03T11:44:55.959Z,69216.00
2018-11-03T11:45:55.994Z,73088.00
2018-11-03T11:46:56.027Z,63936.00
2018-11-03T11:47:56.057Z,63648.00
2018-11-03T11:48:56.090Z,62816.00
2018-11-03T11:49:56.123Z,70336.00
2018-11-03T11:50:56.155Z,75040.00
2018-11-03T11:51:56.189Z,74400.00
2018-11-03T11:52:56.220Z,72192.00
2018-11-03T11:53:56.254Z,71264.00
2018-11-03T11:54:56.339Z,72032.00
2018-11-03T11:55:56.320Z,77504.00
2018-11-03T11:56:56.352Z,72800.00
2018-11-03T11:57:56.384Z,60640.00
2018-11-03T12:03:05.680Z,71456.00
2018-11-03T12:04:05.690Z,75968.00
2018-11-03T12:05:05.722Z,76224.00
2018-11-03T12:06:05.756Z,74112.00
2018-11-03T12:07:05.789Z,76320.00
2018-11-03T12:08:05.824Z,76192.00
2018-11-03T12:09:05.857Z,64416.00
2018-11-03T12:10:05.988Z,72000.00
2018-11-03T12:11:05.923Z,73184.00
2018-11-03T12:12:05.959Z,74304.00
2018-11-03T12:13:05.990Z,65696.00
2018-11-03T12:14:06.022Z,68032.00
2018-11-03T12:15:06.057Z,70240.00
2018-11-03T12:16:06.127Z,76128.00
2018-11-03T12:17:06.123Z,59872.00
2018-11-03T12:18:06.156Z,72640.00
2018-11-03T12:19:06.191Z,80256.00
2018-11-03T12:20:06.223Z,62912.00
2018-11-03T12:21:06.255Z,35744.00
2018-11-03T12:22:06.288Z,26464.00
2018-11-03T12:23:06.323Z,25344.00
2018-11-03T12:24:06.355Z,24320.00
2018-11-03T12:25:06.388Z,23008.00
2018-11-03T12:26:06.422Z,22944.00
2018-11-03T12:27:06.454Z,24128.00
2018-11-03T12:28:06.487Z,23872.00
2018-11-03T12:29:06.521Z,24160.00
2018-11-03T12:30:06.553Z,23776.00
2018-11-03T12:31:06.588Z,23776.00
2018-11-03T12:32:06.620Z,23648.00
2018-11-03T12:33:06.654Z,23104.00
2018-11-03T12:34:06.687Z,23136.00
2018-11-03T12:35:06.721Z,22400.00
2018-11-03T12:36:06.753Z,21056.00
2018-11-03T12:37:06.787Z,21152.00
2018-11-03T12:38:06.819Z,21184.00
2018-11-03T12:39:06.852Z,20128.00